Time;durP1;ratioP1;P1;durP2;ratioP2;P2;SDS_P1;SDS_P2;PMS_P1;PMS_P2;Temp;Humidity;BMP_temperature;BMP_pressure;BME280_temperature;BME280_humidity;BME280_pressure;Samples;Min_cycle;Max_cycle;Signal;HPM_P1;HPM_P2
2023/09/09 00:01:12;;;;;;;15.13;8.80;;;;;;;20.74;71.46;100602.44;4204798;28;20122;-76
2023/09/09 00:03:15;;;;;;;16.40;9.45;;;;;;;20.72;71.51;100601.59;4205610;28;20154;-75
2023/09/09 00:05:18;;;;;;;16.50;9.80;;;;;;;20.71;71.54;100605.16;4204253;28;20043;-75
2023/09/09 00:07:21;;;;;;;12.95;9.82;;;;;;;20.71;71.61;100600.72;4208302;28;20506;-75
2023/09/09 00:09:24;;;;;;;13.63;9.70;;;;;;;20.68;71.98;100599.97;4206549;28;20063;-75
2023/09/09 00:11:27;;;;;;;15.82;8.90;;;;;;;20.66;72.15;100601.72;4203730;28;20127;-75
2023/09/09 00:13:30;;;;;;;13.50;10.27;;;;;;;20.65;72.24;100600.00;4210243;28;20043;-76
2023/09/09 00:15:34;;;;;;;14.52;9.48;;;;;;;20.53;72.95;100607.31;4205840;28;20064;-76
2023/09/09 00:17:37;;;;;;;13.70;8.80;;;;;;;20.49;72.87;100608.31;4203797;28;20393;-75
2023/09/09 00:19:40;;;;;;;14.23;9.60;;;;;;;20.50;72.91;100607.41;4206487;28;20032;-76
2023/09/09 00:21:45;;;;;;;14.32;9.48;;;;;;;20.49;72.90;100605.66;4205542;28;20135;-77
2023/09/09 00:23:47;;;;;;;25.58;11.48;;;;;;;20.44;72.88;100599.59;4198154;22;20048;-66
2023/09/09 00:25:51;;;;;;;13.70;9.70;;;;;;;20.44;72.83;100598.75;4190957;28;20036;-66
2023/09/09 00:27:55;;;;;;;16.30;10.45;;;;;;;20.45;72.70;100597.84;4192144;28;20033;-66
2023/09/09 00:29:59;;;;;;;;;;;;;;;20.32;73.34;100598.13;4185300;28;20040;-66
2023/09/09 00:32:02;;;;;;;19.08;10.73;;;;;;;20.36;72.98;100598.94;4165928;28;19928;-66
2023/09/09 00:34:05;;;;;;;14.75;9.32;;;;;;;20.41;73.00;100602.31;4190266;28;20033;-66
2023/09/09 00:36:08;;;;;;;17.98;10.05;;;;;;;20.43;73.00;100600.53;4189123;28;20037;-66
2023/09/09 00:38:13;;;;;;;18.13;9.43;;;;;;;20.45;72.74;100601.34;4190200;28;20046;-66
2023/09/09 00:40:15;;;;;;;14.80;9.85;;;;;;;20.46;72.70;100592.53;4173678;28;20082;-66
2023/09/09 00:42:18;;;;;;;15.65;9.45;;;;;;;20.44;72.64;100601.41;4188529;28;20091;-67
2023/09/09 00:44:20;;;;;;;16.25;9.95;;;;;;;20.44;72.38;100596.13;4187423;28;20044;-67
2023/09/09 00:46:25;;;;;;;16.02;10.77;;;;;;;20.44;72.68;100596.97;4191800;28;20047;-66
2023/09/09 00:48:28;;;;;;;16.60;9.68;;;;;;;20.42;72.90;100592.66;4189664;28;20048;-67
2023/09/09 00:50:31;;;;;;;16.08;9.75;;;;;;;20.37;73.17;100592.75;4199871;28;20091;-66
2023/09/09 00:52:36;;;;;;;16.70;10.55;;;;;;;20.35;73.10;100595.41;4188692;28;20037;-66
2023/09/09 00:54:38;;;;;;;;;;;;;;;20.20;73.48;100595.81;4191438;28;20059;-66
2023/09/09 00:56:44;;;;;;;14.40;9.55;;;;;;;20.17;73.16;100593.25;4167450;28;19921;-66
2023/09/09 00:58:47;;;;;;;11.18;9.45;;;;;;;20.19;72.99;100597.59;4187799;28;20103;-66
2023/09/09 01:00:49;;;;;;;14.80;10.05;;;;;;;20.19;72.97;100592.31;4189536;28;20516;-66
2023/09/09 01:02:54;;;;;;;14.63;10.15;;;;;;;20.23;72.53;100596.59;4164135;28;20037;-66
2023/09/09 01:04:59;;;;;;;;;;;;;;;20.14;72.84;100596.81;4187994;28;20045;-66
2023/09/09 01:07:02;;;;;;;13.48;9.20;;;;;;;20.16;72.53;100591.50;4191860;28;19974;-66
2023/09/09 01:09:08;;;;;;;14.35;9.43;;;;;;;20.15;72.53;100595.03;4176809;28;20488;-66
2023/09/09 01:11:11;;;;;;;15.70;9.40;;;;;;;20.17;72.30;100596.75;4185756;28;20048;-66
2023/09/09 01:13:14;;;;;;;17.98;10.75;;;;;;;20.17;72.24;100598.53;4175263;28;20047;-66
2023/09/09 01:15:17;;;;;;;10.98;8.52;;;;;;;20.16;71.76;100595.00;4182003;28;20049;-66
2023/09/09 01:17:20;;;;;;;13.73;9.77;;;;;;;20.15;71.46;100601.19;4187984;28;20083;-66
2023/09/09 01:19:25;;;;;;;11.23;8.93;;;;;;;20.15;72.03;100598.56;4190710;28;20137;-66
2023/09/09 01:21:31;;;;;;;16.50;9.45;;;;;;;20.12;71.82;100601.28;4186703;28;20500;-66
2023/09/09 01:23:36;;;;;;;14.45;10.48;;;;;;;20.10;72.03;100599.56;4192851;28;20063;-66
2023/09/09 01:25:39;;;;;;;11.77;9.45;;;;;;;20.06;72.18;100609.31;4195987;28;20040;-67
2023/09/09 01:27:42;;;;;;;14.73;10.10;;;;;;;20.04;72.25;100606.69;4183416;28;20039;-66
2023/09/09 01:29:45;;;;;;;16.15;9.48;;;;;;;20.05;72.41;100607.59;4186363;28;20466;-67
2023/09/09 01:31:48;;;;;;;12.43;9.13;;;;;;;20.00;72.55;100605.03;4176443;28;20516;-66
2023/09/09 01:33:55;;;;;;;13.38;10.43;;;;;;;19.97;72.43;100601.59;4191763;28;20032;-67
2023/09/09 01:35:58;;;;;;;13.43;9.95;;;;;;;19.94;72.03;100602.53;4188448;28;20041;-66
2023/09/09 01:38:01;;;;;;;11.55;9.00;;;;;;;19.94;71.89;100602.53;4187093;28;20059;-66
2023/09/09 01:40:10;;;;;;;13.10;8.93;;;;;;;19.94;72.22;100606.97;4190779;28;20167;-67
2023/09/09 01:42:14;;;;;;;12.90;8.75;;;;;;;19.91;72.30;100607.03;4182964;28;20064;-67
2023/09/09 01:44:17;;;;;;;15.40;9.77;;;;;;;19.89;72.37;100601.78;4168478;28;20069;-66
2023/09/09 01:46:20;;;;;;;10.35;9.18;;;;;;;19.88;72.32;100603.53;4191559;28;20064;-66
2023/09/09 01:48:25;;;;;;;14.63;9.43;;;;;;;19.90;72.13;100610.56;4185188;28;20430;-67
2023/09/09 01:50:28;;;;;;;14.18;9.70;;;;;;;19.90;71.94;100605.28;4200575;28;20541;-67
2023/09/09 01:52:30;;;;;;;13.60;9.10;;;;;;;19.88;71.93;100607.97;4190601;28;20032;-67
2023/09/09 01:54:34;;;;;;;12.68;9.25;;;;;;;19.84;71.78;100604.53;4170552;28;20075;-66
2023/09/09 01:56:38;;;;;;;12.40;8.20;;;;;;;19.76;71.50;100603.78;4199266;28;20041;-66
2023/09/09 01:58:41;;;;;;;10.55;8.70;;;;;;;19.72;71.88;100607.38;4189803;28;20044;-66
2023/09/09 02:00:44;;;;;;;11.85;9.60;;;;;;;19.74;71.80;100599.44;4186274;28;20041;-66
2023/09/09 02:02:47;;;;;;;12.82;9.10;;;;;;;19.74;71.59;100608.22;4187870;28;20028;-66
2023/09/09 02:04:50;;;;;;;12.63;9.05;;;;;;;19.71;71.24;100600.38;4180976;28;20090;-66
2023/09/09 02:06:53;;;;;;;10.95;8.32;;;;;;;19.67;71.62;100607.50;4183393;28;20411;-66
2023/09/09 02:08:56;;;;;;;15.90;10.57;;;;;;;19.66;71.30;100608.38;4172525;28;20037;-67
2023/09/09 02:10:59;;;;;;;15.88;9.90;;;;;;;19.62;71.48;100606.69;4202863;28;20384;-66
2023/09/09 02:13:05;;;;;;;11.80;8.05;;;;;;;19.62;71.62;100604.06;4186859;28;20036;-67
2023/09/09 02:15:11;;;;;;;17.15;10.05;;;;;;;19.63;71.35;100608.44;4198703;28;20037;-66
2023/09/09 02:17:13;;;;;;;12.55;9.13;;;;;;;19.60;72.09;100607.66;4178075;28;20045;-66
2023/09/09 02:19:16;;;;;;;14.25;9.25;;;;;;;19.61;72.01;100604.09;4187485;28;20032;-67
2023/09/09 02:21:19;;;;;;;13.70;9.82;;;;;;;19.62;71.71;100603.22;4180749;28;20041;-66
2023/09/09 02:23:21;;;;;;;12.43;9.48;;;;;;;19.64;71.54;100604.03;4176426;28;20048;-66
2023/09/09 02:25:24;;;;;;;12.20;10.18;;;;;;;19.60;71.68;100607.66;4181763;28;20128;-66
2023/09/09 02:27:27;;;;;;;14.85;9.95;;;;;;;19.56;71.78;100603.34;4182736;28;20037;-66
2023/09/09 02:29:31;;;;;;;11.98;9.05;;;;;;;19.51;71.58;100603.44;4189654;28;20052;-66
2023/09/09 02:31:34;;;;;;;12.65;9.23;;;;;;;19.50;71.50;100599.91;4166144;28;20045;-66
2023/09/09 02:33:37;;;;;;;17.65;9.93;;;;;;;19.48;72.13;100604.38;4181019;28;20095;-66
2023/09/09 02:35:42;;;;;;;14.15;9.85;;;;;;;19.47;72.20;100604.41;4183588;28;20485;-66
2023/09/09 02:37:45;;;;;;;11.82;9.55;;;;;;;19.42;71.84;100603.59;4203929;28;20123;-66
2023/09/09 02:39:48;;;;;;;12.55;9.63;;;;;;;19.42;72.10;100599.22;4194023;28;20117;-66
2023/09/09 02:41:51;;;;;;;12.65;9.27;;;;;;;19.40;71.82;100602.78;4183800;28;20043;-66
2023/09/09 02:43:53;;;;;;;13.43;9.48;;;;;;;19.39;72.08;100604.56;4172270;28;20082;-66
2023/09/09 02:45:58;;;;;;;12.43;9.50;;;;;;;19.39;72.06;100607.19;4197375;28;20036;-66
2023/09/09 02:48:01;;;;;;;13.88;9.32;;;;;;;19.41;72.20;100609.81;4172316;28;20053;-66
2023/09/09 02:50:05;;;;;;;12.82;9.05;;;;;;;19.39;72.02;100607.19;4176123;28;20496;-66
2023/09/09 02:52:07;;;;;;;17.27;10.75;;;;;;;19.39;72.02;100615.09;4182503;28;20061;-66
2023/09/09 02:54:10;;;;;;;12.70;9.07;;;;;;;19.37;72.21;100611.63;4182810;28;20524;-67
2023/09/09 02:56:12;;;;;;;15.77;9.88;;;;;;;19.36;72.39;100615.13;4177593;28;20033;-67
2023/09/09 02:58:15;;;;;;;15.63;10.43;;;;;;;19.35;72.83;100610.78;4189588;28;20036;-67
2023/09/09 03:00:18;;;;;;;15.13;10.45;;;;;;;19.33;72.56;100615.19;4167046;28;20562;-66
2023/09/09 03:02:22;;;;;;;14.07;9.20;;;;;;;19.32;72.80;100613.50;4172508;28;20033;-67
2023/09/09 03:04:26;;;;;;;12.18;9.07;;;;;;;19.32;73.16;100613.50;4183980;28;20531;-66
2023/09/09 03:06:27;;;;;;;15.77;9.90;;;;;;;19.32;73.39;100616.97;4181941;28;20562;-66
2023/09/09 03:08:30;;;;;;;17.25;10.45;;;;;;;19.28;73.70;100617.94;4184343;28;20048;-66
2023/09/09 03:10:34;;;;;;;15.48;10.32;;;;;;;19.27;73.58;100617.97;4161948;28;20593;-66
2023/09/09 03:12:37;;;;;;;13.87;10.13;;;;;;;19.24;73.53;100620.66;4177832;28;20045;-66
2023/09/09 03:14:40;;;;;;;14.82;10.60;;;;;;;19.24;73.63;100621.53;4189300;28;20273;-66
2023/09/09 03:16:45;;;;;;;11.60;10.40;;;;;;;19.21;73.57;100615.44;4182165;28;20072;-66
2023/09/09 03:18:50;;;;;;;13.38;9.80;;;;;;;19.19;73.62;100624.25;4162661;28;20056;-66
2023/09/09 03:20:53;;;;;;;15.77;10.50;;;;;;;19.15;73.47;100613.81;4181250;28;20076;-66
2023/09/09 03:22:58;;;;;;;16.98;10.75;;;;;;;19.15;73.69;100616.44;4184747;28;20802;-66
2023/09/09 03:25:00;;;;;;;15.05;10.63;;;;;;;19.13;73.80;100613.84;4184051;28;20127;-66
2023/09/09 03:27:04;;;;;;;16.33;10.57;;;;;;;19.14;73.62;100614.69;4180935;28;20142;-66
2023/09/09 03:29:07;;;;;;;13.63;11.00;;;;;;;19.12;73.51;100620.00;4180450;28;20037;-66
2023/09/09 03:31:09;;;;;;;13.18;10.80;;;;;;;19.09;73.90;100620.06;4185555;28;20510;-66
2023/09/09 03:33:12;;;;;;;17.80;10.75;;;;;;;19.07;73.69;100619.22;4190693;28;20039;-66
2023/09/09 03:35:16;;;;;;;13.48;11.27;;;;;;;19.10;73.36;100608.63;4180341;28;20049;-66
2023/09/09 03:37:21;;;;;;;14.63;10.95;;;;;;;19.08;73.56;100620.09;4179129;28;20069;-66
2023/09/09 03:39:24;;;;;;;16.83;11.23;;;;;;;19.06;73.45;100617.47;4192076;28;20067;-67
2023/09/09 03:41:27;;;;;;;18.50;11.55;;;;;;;19.09;73.39;100616.56;4180592;28;20072;-66
2023/09/09 03:43:34;;;;;;;12.60;10.52;;;;;;;19.06;73.35;100620.09;4183775;28;20056;-67
2023/09/09 03:45:37;;;;;;;12.95;10.57;;;;;;;19.07;73.76;100619.22;4211125;28;20044;-67
2023/09/09 03:47:40;;;;;;;13.32;9.68;;;;;;;19.07;73.59;100616.59;4187894;28;20095;-67
2023/09/09 03:49:42;;;;;;;14.60;10.95;;;;;;;19.07;73.30;100619.22;4186281;28;20098;-67
2023/09/09 03:51:46;;;;;;;15.20;10.40;;;;;;;19.09;73.71;100621.81;4173695;28;20051;-66
2023/09/09 03:53:48;;;;;;;11.35;9.13;;;;;;;19.07;73.77;100621.84;4175236;28;20047;-66
2023/09/09 03:55:52;;;;;;;15.85;9.55;;;;;;;19.08;73.53;100627.97;4189240;28;20040;-66
2023/09/09 03:57:55;;;;;;;13.57;9.73;;;;;;;19.07;73.32;100616.59;4191758;28;20040;-66
2023/09/09 03:59:58;;;;;;;12.98;10.13;;;;;;;19.05;73.05;100618.38;4191549;28;20501;-66
2023/09/09 04:02:02;;;;;;;16.05;10.55;;;;;;;19.04;73.31;100627.19;4188627;28;20520;-66
2023/09/09 04:04:05;;;;;;;17.00;10.77;;;;;;;19.00;73.74;100628.13;4182400;28;20070;-66
2023/09/09 04:06:10;;;;;;;15.40;10.88;;;;;;;19.01;73.29;100636.00;4191547;28;20044;-66
2023/09/09 04:08:15;;;;;;;11.73;9.45;;;;;;;19.00;73.48;100633.41;4172601;28;20041;-66
2023/09/09 04:10:18;;;;;;;13.98;11.38;;;;;;;18.97;73.48;100630.81;4186787;28;20048;-67
2023/09/09 04:12:22;;;;;;;13.90;10.07;;;;;;;18.96;73.49;100626.44;4192941;28;20036;-67
2023/09/09 04:14:25;;;;;;;14.77;10.27;;;;;;;18.97;73.14;100633.47;4190448;28;20541;-66
2023/09/09 04:16:29;;;;;;;15.60;11.15;;;;;;;18.95;73.19;100635.25;4185461;28;20102;-66
2023/09/09 04:18:32;;;;;;;14.77;10.73;;;;;;;18.94;73.80;100626.47;4190248;28;20060;-66
2023/09/09 04:20:47;;;;;;;15.20;9.07;;;;;;;18.93;73.35;100631.78;4204654;28;20040;-66
2023/09/09 04:22:50;;;;;;;16.55;10.60;;;;;;;18.94;73.39;100630.84;4199977;28;20036;-66
2023/09/09 04:24:55;;;;;;;12.60;9.98;;;;;;;18.95;73.28;100630.84;4188732;28;20033;-66
2023/09/09 04:26:57;;;;;;;12.60;9.77;;;;;;;18.94;73.44;100637.00;4189873;28;20499;-67
2023/09/09 04:29:02;;;;;;;12.65;9.57;;;;;;;18.91;73.77;100628.28;4188301;28;20045;-67
2023/09/09 04:31:05;;;;;;;18.35;11.02;;;;;;;18.90;73.48;100626.56;4185374;28;20039;-66
2023/09/09 04:33:12;;;;;;;15.05;11.90;;;;;;;18.87;73.83;100629.25;4191022;28;20049;-66
2023/09/09 04:35:18;;;;;;;15.15;10.57;;;;;;;18.89;73.39;100630.09;4188096;28;20052;-66
2023/09/09 04:37:20;;;;;;;12.45;9.13;;;;;;;18.89;73.78;100635.34;4167974;28;20049;-66
2023/09/09 04:39:23;;;;;;;20.25;12.38;;;;;;;18.88;73.71;100630.97;4189537;28;20045;-67
2023/09/09 04:41:28;;;;;;;15.05;11.13;;;;;;;18.85;73.93;100629.22;4189956;28;20028;-66
2023/09/09 04:43:30;;;;;;;14.93;11.73;;;;;;;18.84;73.58;100633.63;4202762;28;20039;-67
2023/09/09 04:45:34;;;;;;;13.85;10.43;;;;;;;18.81;73.69;100638.94;4184847;28;20047;-66
2023/09/09 04:47:36;;;;;;;15.23;10.85;;;;;;;18.82;73.97;100634.53;4182388;28;20523;-66
2023/09/09 04:49:39;;;;;;;14.32;10.68;;;;;;;18.79;73.71;100639.88;4164773;28;20123;-66
2023/09/09 04:51:42;;;;;;;16.15;10.02;;;;;;;18.78;73.65;100638.16;4175353;28;20200;-67
2023/09/09 04:53:45;;;;;;;14.15;10.80;;;;;;;18.77;73.69;100636.41;4189754;28;20440;-67
2023/09/09 04:55:48;;;;;;;16.02;10.45;;;;;;;18.77;73.73;100639.91;4161910;28;20448;-66
2023/09/09 04:57:52;;;;;;;13.57;10.93;;;;;;;18.77;73.44;100644.31;4188370;28;20043;-66
2023/09/09 04:59:55;;;;;;;14.98;11.00;;;;;;;18.75;73.93;100644.31;4188511;28;20154;-66
2023/09/09 05:01:58;;;;;;;16.60;12.18;;;;;;;18.77;73.32;100641.66;4171673;28;20041;-66
2023/09/09 05:04:01;;;;;;;15.75;12.25;;;;;;;18.76;73.42;100634.66;4191366;28;20041;-66
2023/09/09 05:06:04;;;;;;;14.30;12.00;;;;;;;18.74;73.32;100652.25;4190053;28;20150;-66
2023/09/09 05:08:07;;;;;;;12.98;10.27;;;;;;;18.75;73.81;100651.34;4188454;28;20033;-66
2023/09/09 05:10:10;;;;;;;11.85;9.52;;;;;;;18.74;73.75;100647.00;4170222;28;20528;-66
2023/09/09 05:12:14;;;;;;;14.40;11.93;;;;;;;18.75;73.75;100654.88;4174984;28;20120;-66
2023/09/09 05:14:18;;;;;;;12.82;10.75;;;;;;;18.77;74.14;100662.75;4182027;28;20566;-66
2023/09/09 05:16:21;;;;;;;13.18;11.07;;;;;;;18.76;74.33;100661.88;4188246;28;20046;-66
2023/09/09 05:18:24;;;;;;;18.92;10.90;;;;;;;18.75;74.66;100659.25;4192121;28;20060;-66
2023/09/09 05:20:30;;;;;;;17.35;10.57;;;;;;;18.74;74.33;100658.38;4188338;28;20446;-66
2023/09/09 05:22:33;;;;;;;16.42;11.35;;;;;;;18.77;74.34;100654.84;4186449;28;20419;-67
2023/09/09 05:24:36;;;;;;;11.48;10.23;;;;;;;18.76;74.51;100656.63;4168931;28;20136;-67
2023/09/09 05:26:39;;;;;;;14.13;11.85;;;;;;;18.78;74.31;100661.84;4189009;28;20044;-66
2023/09/09 05:28:42;;;;;;;13.07;11.00;;;;;;;18.78;74.64;100661.84;4187440;28;20037;-67
2023/09/09 05:30:46;;;;;;;14.10;10.77;;;;;;;18.79;74.18;100664.47;4187308;28;20094;-66
2023/09/09 05:32:49;;;;;;;12.82;10.27;;;;;;;18.79;74.56;100663.56;4182207;28;20067;-67
2023/09/09 05:34:53;;;;;;;14.93;10.68;;;;;;;18.79;74.69;100666.19;4170101;28;20041;-67
2023/09/09 05:36:56;;;;;;;15.55;11.57;;;;;;;18.82;74.72;100667.03;4189103;28;20459;-66
2023/09/09 05:38:59;;;;;;;14.82;10.57;;;;;;;18.83;74.82;100665.25;4172249;28;20033;-66
2023/09/09 05:41:03;;;;;;;;;;;;;;;18.72;75.79;100669.84;4187244;28;20037;-66
2023/09/09 05:43:06;;;;;;;14.90;10.77;;;;;;;18.77;75.60;100665.38;4189332;28;19958;-66
2023/09/09 05:45:11;;;;;;;13.57;11.00;;;;;;;18.81;75.35;100672.34;4162389;28;20042;-67
2023/09/09 05:47:16;;;;;;;12.77;10.25;;;;;;;18.87;75.69;100680.16;4176095;28;20187;-66
2023/09/09 05:49:19;;;;;;;11.75;10.15;;;;;;;18.89;75.34;100681.00;4183598;28;20591;-66
2023/09/09 05:51:38;;;;;;;13.43;10.77;;;;;;;18.92;75.64;100682.72;4181916;28;20119;-66
2023/09/09 05:53:41;;;;;;;16.60;11.05;;;;;;;18.98;75.61;100674.69;4181776;28;20037;-67
2023/09/09 05:55:44;;;;;;;14.88;11.57;;;;;;;19.00;75.73;100672.94;4188523;28;20033;-66
2023/09/09 05:57:47;;;;;;;17.08;11.68;;;;;;;19.03;75.77;100675.50;4189274;28;20040;-66
2023/09/09 05:59:50;;;;;;;13.35;10.77;;;;;;;19.04;76.13;100669.34;4180710;28;20033;-67
2023/09/09 06:01:54;;;;;;;16.77;11.63;;;;;;;19.05;76.32;100678.13;4187898;28;20033;-66
2023/09/09 06:03:57;;;;;;;14.85;11.32;;;;;;;19.10;76.05;100678.88;4176008;28;20052;-66
2023/09/09 06:06:00;;;;;;;14.23;10.67;;;;;;;19.13;76.19;100682.34;4170884;28;20061;-58
2023/09/09 06:08:04;;;;;;;13.63;9.30;;;;;;;19.44;78.12;100681.78;4181210;28;20323;-58
2023/09/09 06:10:07;;;;;;;15.35;8.80;;;;;;;19.71;77.54;100675.09;4174547;28;20091;-59
2023/09/09 06:12:10;;;;;;;14.27;9.45;;;;;;;19.94;76.89;100686.97;4163196;28;20045;-58
2023/09/09 06:14:13;;;;;;;14.30;9.90;;;;;;;20.11;76.11;100681.34;4173108;28;20037;-59
2023/09/09 06:19:35;;;;;;;14.68;9.75;;;;;;;20.29;74.55;100690.63;4128447;28;20054;-59
2023/09/09 06:21:38;;;;;;;13.43;10.13;;;;;;;20.36;74.19;100688.72;4128006;28;20046;-59
2023/09/09 06:23:42;;;;;;;15.80;10.18;;;;;;;20.40;73.65;100690.41;4176987;22;20056;-62
2023/09/09 06:25:45;;;;;;;16.55;10.88;;;;;;;20.43;73.61;100684.16;4160062;28;20046;-62
2023/09/09 06:27:48;;;;;;;15.27;10.52;;;;;;;20.45;73.30;100688.50;4177828;28;20136;-61
2023/09/09 06:29:51;;;;;;;12.65;10.30;;;;;;;20.49;73.30;100695.47;4178770;28;20045;-61
2023/09/09 06:31:54;;;;;;;14.55;11.18;;;;;;;20.50;73.05;100691.91;4162694;28;20100;-61
2023/09/09 06:33:57;;;;;;;20.48;11.10;;;;;;;20.50;72.95;100697.19;4178992;28;20474;-62
2023/09/09 06:36:02;;;;;;;15.55;10.73;;;;;;;20.51;73.07;100693.63;4153475;28;20041;-61
2023/09/09 06:38:05;;;;;;;19.75;10.55;;;;;;;20.53;72.64;100702.41;4180125;28;20037;-62
2023/09/09 06:40:09;;;;;;;15.27;11.50;;;;;;;20.52;72.42;100695.38;4178024;28;20037;-62
2023/09/09 06:42:13;;;;;;;15.95;11.07;;;;;;;20.52;72.64;100698.03;4184873;28;20036;-67
2023/09/09 06:44:21;;;;;;;14.52;11.32;;;;;;;20.53;72.58;100694.50;4176081;28;20048;-66
2023/09/09 06:46:24;;;;;;;15.88;11.60;;;;;;;20.56;72.36;100701.47;4184617;28;20043;-65
2023/09/09 06:48:28;;;;;;;14.05;11.18;;;;;;;20.58;72.15;100705.78;4187936;28;20125;-66
2023/09/09 06:50:31;;;;;;;13.00;10.95;;;;;;;20.63;72.02;100702.19;4183998;28;20043;-66
2023/09/09 06:52:38;;;;;;;15.27;11.43;;;;;;;20.69;71.69;100700.31;4182144;28;20032;-65
2023/09/09 06:54:41;;;;;;;19.58;12.05;;;;;;;20.74;71.47;100702.84;4173693;28;20079;-68
2023/09/09 06:56:44;;;;;;;13.02;11.30;;;;;;;20.79;71.29;100700.06;4184158;28;20036;-65
2023/09/09 06:58:46;;;;;;;16.45;11.77;;;;;;;20.82;71.08;100707.94;4180212;28;20033;-63
2023/09/09 07:00:50;;;;;;;20.27;13.02;;;;;;;20.84;70.87;100707.00;4168201;28;20062;-62
2023/09/09 07:02:53;;;;;;;12.73;11.05;;;;;;;20.87;70.86;100703.41;4178693;28;20037;-61
2023/09/09 07:04:56;;;;;;;14.68;10.70;;;;;;;20.91;70.69;100710.38;4178726;28;20045;-62
2023/09/09 07:06:59;;;;;;;17.75;11.68;;;;;;;20.98;70.43;100719.00;4178229;28;20087;-61
2023/09/09 07:09:16;;;;;;;15.68;11.20;;;;;;;21.01;70.20;100716.28;4183206;28;20403;-62
2023/09/09 07:11:19;;;;;;;12.85;10.13;;;;;;;21.01;70.31;100713.63;4162760;28;20045;-63
2023/09/09 07:13:23;;;;;;;16.90;11.40;;;;;;;21.04;70.31;100718.84;4176214;28;20075;-62
2023/09/09 07:15:26;;;;;;;15.32;11.45;;;;;;;21.06;70.19;100720.53;4179999;28;20040;-62
2023/09/09 07:17:29;;;;;;;16.90;11.73;;;;;;;21.09;70.09;100722.25;4183831;28;20500;-62
2023/09/09 07:19:32;;;;;;;17.38;11.88;;;;;;;21.12;69.76;100716.88;4181500;28;20131;-62
2023/09/09 07:21:34;;;;;;;16.02;12.88;;;;;;;21.15;69.44;100722.09;4183715;28;20037;-62
2023/09/09 07:23:37;;;;;;;16.92;13.45;;;;;;;21.15;69.09;100730.00;4185936;28;20053;-62
2023/09/09 07:25:42;;;;;;;17.77;12.85;;;;;;;21.18;69.12;100729.94;4178420;28;20062;-62
2023/09/09 07:27:45;;;;;;;20.52;13.23;;;;;;;21.19;68.71;100731.69;4175089;28;20095;-62
2023/09/09 07:29:48;;;;;;;24.52;14.65;;;;;;;21.28;68.16;100727.94;4189060;28;20045;-62
2023/09/09 07:31:50;;;;;;;17.88;13.32;;;;;;;21.26;68.16;100730.63;4182540;28;20041;-62
2023/09/09 07:33:54;;;;;;;22.67;14.25;;;;;;;21.30;67.84;100731.38;4179911;28;20457;-62
2023/09/09 07:35:57;;;;;;;16.35;13.00;;;;;;;21.35;67.83;100731.25;4184572;28;20037;-62
2023/09/09 07:38:00;;;;;;;18.23;12.80;;;;;;;21.48;67.56;100729.16;4167794;28;20041;-62
2023/09/09 07:40:04;;;;;;;18.80;13.27;;;;;;;21.53;67.43;100725.53;4186862;28;20120;-62
2023/09/09 07:42:08;;;;;;;14.95;12.13;;;;;;;21.57;67.36;100729.81;4174275;28;20220;-62
2023/09/09 07:44:11;;;;;;;15.10;11.70;;;;;;;21.59;67.48;100732.44;4185168;28;20032;-61
2023/09/09 07:46:14;;;;;;;15.43;12.15;;;;;;;21.61;67.43;100731.50;4187168;28;20056;-62
2023/09/09 07:48:17;;;;;;;16.35;12.18;;;;;;;21.64;67.17;100725.25;4184913;28;20047;-62
2023/09/09 07:50:20;;;;;;;19.08;12.90;;;;;;;21.66;67.03;100726.06;4185800;28;20491;-62
2023/09/09 07:52:23;;;;;;;17.77;13.63;;;;;;;21.70;66.92;100730.38;4185205;28;20460;-62
2023/09/09 07:54:25;;;;;;;18.50;14.90;;;;;;;21.72;66.42;100731.19;4184834;28;20046;-61
2023/09/09 07:56:27;;;;;;;19.88;15.60;;;;;;;21.75;66.40;100733.72;4189459;28;20476;-62
2023/09/09 07:58:32;;;;;;;22.90;18.08;;;;;;;21.77;65.92;100734.56;4186729;28;20094;-62
2023/09/09 08:00:36;;;;;;;21.77;14.75;;;;;;;21.76;65.89;100726.69;4184846;28;20037;-61
2023/09/09 08:02:39;;;;;;;21.95;13.82;;;;;;;21.82;65.91;100733.59;4185606;28;20100;-62
2023/09/09 08:04:42;;;;;;;19.25;14.57;;;;;;;21.83;66.04;100727.34;4177504;28;20033;-61
2023/09/09 08:06:46;;;;;;;20.60;15.27;;;;;;;21.88;65.78;100734.25;4181507;28;20037;-62
2023/09/09 08:08:53;;;;;;;17.38;13.27;;;;;;;21.93;65.57;100737.66;4182273;28;20052;-62
2023/09/09 08:10:55;;;;;;;16.27;14.00;;;;;;;22.02;65.51;100735.63;4174790;28;20483;-62
2023/09/09 08:12:58;;;;;;;20.45;13.82;;;;;;;22.08;65.34;100730.19;4179759;28;20048;-62
2023/09/09 08:15:06;;;;;;;19.38;13.35;;;;;;;22.17;65.25;100740.50;4181948;28;20037;-62
2023/09/09 08:17:09;;;;;;;23.33;15.00;;;;;;;22.20;65.07;100735.09;4184883;28;20041;-62
2023/09/09 08:19:12;;;;;;;24.08;15.85;;;;;;;22.21;65.08;100738.63;4182065;28;20037;-62
2023/09/09 08:21:15;;;;;;;21.73;13.13;;;;;;;22.28;64.98;100737.53;4181943;28;20072;-62
2023/09/09 08:23:18;;;;;;;20.20;15.15;;;;;;;22.39;64.91;100740.75;4179432;28;20041;-62
2023/09/09 08:25:21;;;;;;;18.10;13.43;;;;;;;22.44;64.79;100740.59;4179734;28;20064;-62
2023/09/09 08:27:24;;;;;;;19.55;13.10;;;;;;;22.50;64.56;100743.06;4183620;28;20070;-62
2023/09/09 08:29:27;;;;;;;20.75;12.73;;;;;;;22.55;64.92;100745.59;4189381;28;20040;-62
2023/09/09 08:31:35;;;;;;;16.60;14.05;;;;;;;22.56;64.32;100734.94;4176638;28;20072;-61
2023/09/09 08:33:38;;;;;;;18.17;14.05;;;;;;;22.59;64.46;100742.78;4178449;28;20451;-62
2023/09/09 08:35:41;;;;;;;16.27;13.85;;;;;;;22.62;64.03;100744.50;4179759;28;20060;-62
2023/09/09 08:37:44;;;;;;;22.10;14.73;;;;;;;22.67;63.81;100734.59;4197567;28;20059;-63
2023/09/09 08:39:50;;;;;;;18.38;13.60;;;;;;;22.78;63.47;100743.06;4198334;28;20036;-64
2023/09/09 08:42:03;;;;;;;19.52;14.30;;;;;;;22.83;62.71;100742.94;4177912;28;20032;-61
2023/09/09 08:44:14;;;;;;;21.80;17.35;;;;;;;22.94;62.52;100740.81;4175896;28;20378;-62
2023/09/09 08:46:18;;;;;;;21.42;13.63;;;;;;;22.99;62.66;100740.63;4181748;28;20063;-62
2023/09/09 08:48:24;;;;;;;20.77;14.02;;;;;;;23.05;62.83;100739.56;4180143;28;20431;-62
2023/09/09 08:50:32;;;;;;;22.17;15.00;;;;;;;23.08;62.31;100740.31;4172367;28;20407;-62
2023/09/09 08:52:35;;;;;;;25.52;15.48;;;;;;;23.14;61.55;100737.53;4180114;28;20041;-62
2023/09/09 08:54:39;;;;;;;15.85;12.70;;;;;;;23.17;62.01;100736.53;4184329;28;20049;-62
2023/09/09 08:56:42;;;;;;;20.50;13.60;;;;;;;23.24;61.54;100746.00;4180033;28;20037;-63
2023/09/09 08:58:46;;;;;;;18.33;13.73;;;;;;;23.28;61.33;100739.69;4180848;28;20694;-62
2023/09/09 09:00:48;;;;;;;26.95;18.73;;;;;;;23.33;60.13;100731.56;4179583;28;20064;-62
2023/09/09 09:02:52;;;;;;;26.83;17.10;;;;;;;23.33;60.87;100740.41;4185952;28;20036;-61
2023/09/09 09:04:57;;;;;;;22.33;14.07;;;;;;;23.44;60.79;100732.06;4175052;28;20569;-62
2023/09/09 09:07:01;;;;;;;19.15;13.52;;;;;;;23.48;61.09;100736.34;4181294;28;20044;-62
2023/09/09 09:09:04;;;;;;;23.33;14.80;;;;;;;23.56;60.50;100740.53;4180714;28;20631;-62
2023/09/09 09:11:09;;;;;;;18.90;14.23;;;;;;;23.67;59.23;100736.56;4180531;28;20072;-63
2023/09/09 09:13:12;;;;;;;21.00;13.13;;;;;;;23.70;59.43;100738.25;4184619;28;20044;-63
2023/09/09 09:15:15;;;;;;;23.02;14.82;;;;;;;23.75;59.47;100738.94;4182057;28;20041;-63
2023/09/09 09:17:18;;;;;;;22.42;14.38;;;;;;;23.86;58.52;100738.59;4179653;28;20472;-62
2023/09/09 09:19:26;;;;;;;20.17;13.97;;;;;;;23.90;58.42;100729.56;4181146;28;20086;-62
2023/09/09 09:21:34;;;;;;;20.40;13.55;;;;;;;23.92;58.16;100738.34;4181837;28;20115;-62
2023/09/09 09:23:43;;;;;;;20.15;13.23;;;;;;;24.03;58.38;100735.28;4177523;28;20036;-62
2023/09/09 09:25:47;;;;;;;24.17;14.48;;;;;;;24.19;57.58;100732.91;4178711;28;20045;-62
2023/09/09 09:27:50;;;;;;;17.73;12.32;;;;;;;24.21;58.03;100733.72;4178691;28;20037;-62